Monday, September 15, 2014
02:07 UTC
  |  Log In   |  Register Free
Airport Search:

Northeast Philadelphia Airport
(KPNE)

FAA data valid effective July 24, 2014 until September 18, 2014 (unless otherwise noted).

 
 
 
 
 
 
 
 
 
 
 
 
 
 

Current Aviation Weather for Northeast Philadelphia Airport (KPNE)

The most recent METAR observation for KPNE was updated at: 0120
METAR Summary (Translated METAR)
KPNE
150054Z AUTO 30004KT 10SM CLR 17/08 A3022 RMK AO2 SLP234 T01670083 TSNO
KVAY
150054Z AUTO 00000KT 10SM CLR 14/11 A3021 RMK AO2 SLP229 T01390106
(11.3 nm SE from KPNE)
KLOM
150055Z AUTO 00000KT 10SM CLR 12/11 A3021 RMK AO1
(12.1 nm NW from KPNE)
TAF Summary (Translated TAF)
KPNE
142045Z 1421/1518 VRB04KT P6SM SCT250 FM150000 00000KT P6SM SKC FM151500 35003KT P6SM SKC
  Airport Weather Conditions for KPNE

 Current Weather at PNE
62° F
Fair
Northwest winds at 4.6 mph
PNE NOAA Radar

Pressure: 30.22 in
Humidity: 58%
Wind: Northwest at 4.6 MPH (4 KT)
Dew Point: 46.9°F
Visibility: 10.00 mi


Airport Weather Forecast for KPNE

Translated METAR and TAF for KPNE
Translated METAR for KPNE (0202 UTC 15 September 2014)
found at http://aviationweather.gov/adds/metars/
 
METAR text: KPNE 150154Z AUTO 00000KT 10SM CLR 15/09 A3022 RMK AO2 SLP234 T01500089 TSNO
Conditions at: KPNE (PHILADELPHIA/NE , PA, US) observed 0154 UTC 15 September 2014
Temperature: 15.0°C (59°F)
Dewpoint: 8.9°C (48°F) [RH = 67%]
Pressure (altimeter): 30.22 inches Hg (1023.5 mb)
[Sea-level pressure: 1023.4 mb]
Winds: calm
Visibility: 10 or more miles (16+ km)
Ceiling: at least 12,000 feet AGL
Clouds: sky clear below 12,000 feet AGL
Weather: automated observation with no human augmentation;
there may or may not be significant weather present at this time
Translated TAF for KPNE
Forecast for: KPNE (PHILADELPHIA/NE , PA, US)
TAF Text: KPNE 142340Z 1500/1524 00000KT P6SM SKC
Forecast period: 0000 to 1500 UTC 15 September 2014
Forecast type: FROM: standard forecast or significant change
Winds: calm
Visibility: 6 or more miles (10+ km)
Clouds: clear skies
Weather: no significant weather forecast for this period
TAF Text: FM151500 35003KT P6SM SKC
Forecast period: 1500 UTC 15 September 2014 to 0000 UTC 16 September 2014
Forecast type: FROM: standard forecast or significant change
Winds: from the N (350 degrees) at 3 MPH (3 knots; 1.6 m/s)
Visibility: 6 or more miles (10+ km)
Clouds: clear skies
Weather: no significant weather forecast for this period

Find All Airport Services Find A Hotel Find A Rental Car Find A Golf Course Find A Restaurant $100 Hamburger



FBO's on the Field
FBO Company Facility Photos Services Transportation Aviation Fuel Prices: Prices include tax
Catering Weather Repair Courtesy Rental Type 100LL JetA JetA+ MOGAS 8087
 
Atlantic Aviation

This FBO has not yet been rated
FS:Texaco
Last Updated: Sep-12
Login to update fuel prices
SS:
Contact Atlantic AviationMore FBO Information
 
North Philadelphia Jet Center

Currently rated 5 by 2 people
FS:Avfuel
Last Updated: Sep-09
Login to update fuel prices
SS:
Contact North Philadelphia Jet CenterMore FBO Information
 
Add another FBO Facility Photos Catering Weather Repair Courtesy Rental Type 100LL JetA JetA+ MOGAS 8087
Services Transportation Aviation Fuel Prices: Prices include tax


model-print
model-print
model-print
model-print